Crane, Washington
Current Conditions -  °F | °C
As of 4:53 PM on Tuesday 21 Oct 2014 (Local Time) from KCLM Reporting Station
Light Rain Light Rain  
Wind Chill: 14°   Ceiling: 8500
Heat Index: 14°   Visibility: 10mi
Dew Point: 11°   Wind: 6mph
Humidity: 78%   Direction: 240°WSW
Pressure: 29.77"   Gusts: NA
Location:  48.1359°N, 123.734°W
Report Text: KCLM 212353Z AUTO 24005KT 10SM -RA FEW055 SCT070 OVC085 14/11 A2977 RMK AO2 SLP082 P0000 60000 T01440106 10172 20139 58015 TSNO
Loading
Personal Weather Stations






























Interactive Weather Map
Tropical Storm Tracking
New forecast layout! Learn more

10-Day Weather Forecast

Advertisements
Track Severe Weather on mobile